Time;durP1;ratioP1;P1;durP2;ratioP2;P2;SDS_P1;SDS_P2;PMS_P1;PMS_P2;Temp;Humidity;BMP_temperature;BMP_pressure;BME280_temperature;BME280_humidity;BME280_pressure;Samples;Min_cycle;Max_cycle;Signal;HPM_P1;HPM_P2
2022/11/20 00:00:48;;;;;;;47.70;27.30;;;;;;;-4.01;65.39;100290.03;105078;1286;109176;-85
2022/11/20 00:03:19;;;;;;;45.80;25.30;;;;;;;-4.04;65.57;100293.56;104978;1293;140214;-85
2022/11/20 00:05:51;;;;;;;44.00;25.20;;;;;;;-4.10;65.77;100295.45;105051;1297;106180;-85
2022/11/20 00:08:27;;;;;;;46.20;26.80;;;;;;;-4.11;65.77;100291.27;104932;1278;140820;-85
2022/11/20 00:10:58;;;;;;;49.10;26.20;;;;;;;-4.12;66.00;100294.20;105089;1287;92916;-84
2022/11/20 00:13:29;;;;;;;48.90;26.70;;;;;;;-4.12;65.96;100302.33;105040;1292;139758;-84
2022/11/20 00:16:02;;;;;;;50.50;27.60;;;;;;;-4.13;66.16;100303.33;105076;1295;96166;-84
2022/11/20 00:18:35;;;;;;;49.70;26.00;;;;;;;-4.16;65.90;100301.34;105075;1295;107223;-83
2022/11/20 00:21:07;;;;;;;47.40;26.90;;;;;;;-4.16;66.12;100301.34;104966;1292;139597;-84
2022/11/20 00:23:38;;;;;;;46.80;25.90;;;;;;;-4.11;66.38;100296.10;105100;1299;94017;-85
2022/11/20 00:26:10;;;;;;;48.20;27.20;;;;;;;-4.08;66.27;100295.36;104953;1298;141150;-84
2022/11/20 00:28:42;;;;;;;46.60;27.40;;;;;;;-4.11;66.25;100290.21;105132;1295;97303;-84
2022/11/20 00:31:15;;;;;;;46.60;26.50;;;;;;;-4.12;66.35;100291.77;105038;1290;106456;-85
2022/11/20 00:33:46;;;;;;;44.50;25.60;;;;;;;-4.10;66.58;100292.00;104875;1298;140484;-85
2022/11/20 00:36:18;;;;;;;44.90;26.30;;;;;;;-4.02;66.51;100290.49;105089;1294;92856;-85
2022/11/20 00:42:05;;;;;;;49.30;27.80;;;;;;;-3.95;66.31;100288.63;104939;1295;96219;-84
2022/11/20 00:44:59;;;;;;;50.70;29.90;;;;;;;-3.93;66.46;100288.70;104994;1288;138590;-84
2022/11/20 00:47:29;;;;;;;44.70;25.70;;;;;;;-3.86;66.46;100286.13;105066;1290;93081;-85
2022/11/20 00:50:00;;;;;;;43.70;25.50;;;;;;;-3.81;66.31;100281.23;105025;1286;140173;-84
2022/11/20 00:52:31;;;;;;;47.60;27.00;;;;;;;-3.80;66.36;100280.23;105148;1284;109151;-84
2022/11/20 00:55:02;;;;;;;47.00;27.30;;;;;;;-3.78;66.51;100276.31;105183;1292;98031;-83
2022/11/20 00:57:32;;;;;;;48.40;28.10;;;;;;;-3.72;66.29;100275.95;104992;1294;140179;-85
2022/11/20 01:00:05;;;;;;;47.30;27.90;;;;;;;-3.71;66.20;100272.51;105109;1293;93303;-86
2022/11/20 01:02:39;;;;;;;43.70;25.20;;;;;;;-3.69;66.17;100269.27;105015;1286;140826;-86
2022/11/20 01:05:11;;;;;;;43.90;25.60;;;;;;;-3.64;66.17;100266.29;105133;1298;108383;-84
2022/11/20 01:07:42;;;;;;;45.40;26.60;;;;;;;-3.64;65.98;100261.09;105037;1292;139965;-85
2022/11/20 01:10:20;;;;;;;47.00;26.90;;;;;;;-3.67;66.08;100259.09;105133;1292;107188;-85
2022/11/20 01:13:36;;;;;;;47.90;27.40;;;;;;;-3.68;66.23;100253.35;105099;1291;93203;-85
2022/11/20 01:15:44;;;;;;;45.00;24.60;;;;;;;-3.67;66.20;100253.53;105003;1291;139564;-84
2022/11/20 01:18:26;;;;;;;43.50;25.30;;;;;;;-3.64;66.09;100250.51;105129;1294;108581;-84
2022/11/20 01:21:08;;;;;;;47.90;27.60;;;;;;;-3.63;66.07;100249.16;105008;1292;138812;-85
2022/11/20 01:23:42;;;;;;;49.10;27.20;;;;;;;-3.61;66.08;100251.27;105127;1285;107650;-83
2022/11/20 01:26:15;;;;;;;48.70;27.60;;;;;;;-3.65;65.96;100246.31;105000;1295;139291;-85
2022/11/20 01:28:47;;;;;;;47.80;26.80;;;;;;;-3.69;65.99;100246.39;105152;1285;93542;-84
2022/11/20 01:31:23;;;;;;;46.20;26.50;;;;;;;-3.70;66.09;100242.89;105081;1292;108054;-85
2022/11/20 01:34:01;;;;;;;46.80;28.10;;;;;;;-3.66;66.02;100239.15;105081;1290;96274;-84
2022/11/20 01:36:34;;;;;;;50.00;30.30;;;;;;;-3.64;65.79;100238.35;105080;1290;107002;-84
2022/11/20 01:39:07;;;;;;;48.40;27.40;;;;;;;-3.63;66.07;100233.71;105005;1292;139117;-85
2022/11/20 01:48:22;;;;;;;46.20;26.60;;;;;;;-3.64;65.98;100230.02;105026;1293;98044;-84
2022/11/20 01:51:14;;;;;;;48.00;28.80;;;;;;;-3.63;66.08;100237.34;105018;1292;141168;-86
2022/11/20 01:53:58;;;;;;;47.80;29.20;;;;;;;-3.56;66.11;100247.26;105133;1294;93317;-85
2022/11/20 01:56:46;;;;;;;45.50;26.60;;;;;;;-3.40;66.09;100253.98;104935;1294;140516;-84
2022/11/20 01:59:46;;;;;;;46.10;27.60;;;;;;;-3.32;65.42;100251.58;105121;1294;108395;-84
2022/11/20 02:06:30;;;;;;;;;;;;;;;;;;;;;
2022/11/20 02:09:01;;;;;;;44.20;26.20;;;;;;;-3.24;65.06;100259.27;104989;1294;140212;-84
2022/11/20 02:11:32;;;;;;;44.10;24.70;;;;;;;-3.32;64.94;100254.35;105054;1291;92927;-84
2022/11/20 02:14:03;;;;;;;43.80;26.20;;;;;;;-3.39;65.12;100252.96;104990;1290;139134;-85
2022/11/20 02:16:37;;;;;;;43.90;25.30;;;;;;;-3.39;65.37;100245.15;105122;1291;98338;-84
2022/11/20 02:19:14;;;;;;;45.40;26.80;;;;;;;-3.39;65.28;100242.86;105073;1284;107439;-84
2022/11/20 02:21:50;;;;;;;46.00;27.00;;;;;;;-3.41;65.61;100248.71;104980;1294;139405;-84
2022/11/20 02:24:22;;;;;;;47.40;26.40;;;;;;;-3.41;65.45;100248.02;105130;1291;92852;-85
2022/11/20 02:26:56;;;;;;;42.50;24.80;;;;;;;-3.41;65.70;100242.64;104921;1292;139564;-85
2022/11/20 02:29:31;;;;;;;42.40;26.00;;;;;;;-3.40;65.65;100241.80;105069;1293;98111;-84
2022/11/20 02:32:03;;;;;;;44.30;26.90;;;;;;;-3.40;65.64;100243.89;104952;1294;139103;-85
2022/11/20 02:34:36;;;;;;;47.00;28.00;;;;;;;-3.38;65.73;100244.11;105095;1294;93497;-84
2022/11/20 02:37:08;;;;;;;45.40;26.90;;;;;;;-3.35;65.56;100242.46;105146;1290;93204;-84
2022/11/20 02:39:40;;;;;;;46.70;26.80;;;;;;;-3.36;65.57;100249.05;105115;1286;147245;-84
2022/11/20 02:42:11;;;;;;;42.70;25.20;;;;;;;-3.38;65.71;100248.63;105152;1287;96027;-85
2022/11/20 02:44:43;;;;;;;41.60;24.90;;;;;;;-3.35;65.79;100248.38;104898;1284;139732;-86
2022/11/20 02:47:13;;;;;;;43.80;26.70;;;;;;;-3.33;65.72;100244.95;105085;1296;94139;-85
2022/11/20 02:49:45;;;;;;;45.20;27.70;;;;;;;-3.31;65.70;100244.65;105014;1299;140965;-85
2022/11/20 02:52:18;;;;;;;47.80;27.00;;;;;;;-3.33;65.82;100239.92;105086;1292;108366;-85
2022/11/20 02:54:49;;;;;;;44.60;25.10;;;;;;;-3.38;66.04;100241.67;105091;1292;98613;-85
2022/11/20 02:57:19;;;;;;;41.60;23.80;;;;;;;-3.43;66.00;100238.62;104957;1292;139206;-85
2022/11/20 02:59:50;;;;;;;42.50;25.00;;;;;;;-3.45;66.27;100238.73;105063;1295;93265;-85
2022/11/20 03:02:21;;;;;;;43.60;25.30;;;;;;;-3.51;66.41;100233.72;104981;1292;138716;-85
2022/11/20 03:04:53;;;;;;;45.40;25.50;;;;;;;-3.58;66.68;100235.44;105097;1280;108530;-85
2022/11/20 03:07:25;;;;;;;45.80;26.80;;;;;;;-3.65;67.00;100236.08;105107;1285;98045;-84
2022/11/20 03:09:56;;;;;;;45.40;25.50;;;;;;;-3.73;67.12;100233.96;104956;1294;139750;-85
2022/11/20 03:12:27;;;;;;;40.90;24.70;;;;;;;-3.76;67.45;100237.84;105082;1299;93149;-85
2022/11/20 03:14:58;;;;;;;44.00;25.50;;;;;;;-3.78;67.44;100231.20;104985;1292;139125;-85
2022/11/20 03:17:29;;;;;;;45.30;26.40;;;;;;;-3.80;67.67;100230.80;105091;1284;109000;-85
2022/11/20 03:20:03;;;;;;;48.10;25.50;;;;;;;-3.82;67.84;100229.34;104969;1292;139940;-85
2022/11/20 03:22:33;;;;;;;42.10;23.50;;;;;;;-3.88;68.04;100228.14;105088;1294;107229;-85
2022/11/20 03:25:05;;;;;;;44.10;24.90;;;;;;;-3.91;68.18;100224.06;105091;1292;93278;-84
2022/11/20 03:27:36;;;;;;;44.90;26.30;;;;;;;-3.89;68.26;100219.44;104977;1293;138452;-85
2022/11/20 03:30:09;;;;;;;46.10;28.60;;;;;;;-3.89;68.31;100221.52;105027;1291;108655;-84
2022/11/20 03:32:40;;;;;;;45.90;27.70;;;;;;;-3.88;68.28;100220.00;104969;1294;140706;-85
2022/11/20 03:35:11;;;;;;;40.50;22.70;;;;;;;-3.88;68.42;100223.45;105071;1284;106564;-86
2022/11/20 03:37:42;;;;;;;43.60;24.60;;;;;;;-3.93;68.63;100218.27;104945;1294;144575;-85
2022/11/20 03:40:13;;;;;;;39.70;24.50;;;;;;;-3.95;68.67;100217.88;105084;1292;93766;-84
2022/11/20 03:42:48;;;;;;;39.30;22.80;;;;;;;-3.99;68.83;100218.45;105095;1294;108865;-85
2022/11/20 03:45:19;;;;;;;44.50;25.60;;;;;;;-4.05;69.15;100217.74;104986;1284;141645;-85
2022/11/20 03:47:50;;;;;;;40.00;23.10;;;;;;;-4.10;69.23;100214.13;105050;1284;107432;-85
2022/11/20 03:50:22;;;;;;;41.50;23.40;;;;;;;-4.14;69.44;100207.59;104946;1297;138851;-84
2022/11/20 03:52:53;;;;;;;42.90;26.10;;;;;;;-4.17;69.40;100207.52;105119;1292;93504;-84
2022/11/20 03:55:24;;;;;;;43.20;25.50;;;;;;;-4.22;69.72;100208.41;105080;1299;108627;-84
2022/11/20 03:57:55;;;;;;;42.80;25.00;;;;;;;-4.26;69.82;100208.27;105029;1294;138206;-85
2022/11/20 04:00:26;;;;;;;44.00;24.90;;;;;;;-4.26;69.97;100211.77;105063;1299;107516;-85
2022/11/20 04:03:00;;;;;;;41.60;24.80;;;;;;;-4.18;69.67;100217.17;104960;1292;142050;-85
2022/11/20 04:05:31;;;;;;;45.60;27.00;;;;;;;-4.15;69.54;100215.71;105099;1294;93643;-85
2022/11/20 04:08:01;;;;;;;47.80;27.50;;;;;;;-4.09;69.62;100218.31;104990;1292;139654;-84
2022/11/20 04:10:33;;;;;;;47.00;26.50;;;;;;;-4.08;69.27;100217.15;105007;1276;98582;-85
2022/11/20 04:13:04;;;;;;;45.30;26.10;;;;;;;-4.17;69.27;100210.63;105078;1298;107441;-84
2022/11/20 04:15:35;;;;;;;42.30;26.10;;;;;;;-4.20;69.57;100213.67;104939;1294;140106;-85
2022/11/20 04:18:08;;;;;;;45.50;26.70;;;;;;;-4.11;69.70;100216.20;105099;1294;93097;-85
2022/11/20 04:20:39;;;;;;;48.50;27.90;;;;;;;-4.05;69.36;100219.13;104983;1294;140516;-85
2022/11/20 04:23:10;;;;;;;52.50;30.00;;;;;;;-3.95;69.19;100228.09;105107;1292;98191;-85
2022/11/20 04:25:42;;;;;;;46.60;26.60;;;;;;;-3.89;68.82;100222.02;105032;1293;140509;-85
2022/11/20 04:28:13;;;;;;;42.80;25.90;;;;;;;-3.92;68.71;100223.16;105385;1291;93102;-84
2022/11/20 04:30:45;;;;;;;42.60;25.60;;;;;;;-3.93;68.55;100220.70;105291;1290;93265;-84
2022/11/20 04:33:16;;;;;;;48.10;27.60;;;;;;;-3.99;68.50;100218.95;104972;1291;140857;-85
2022/11/20 04:35:51;;;;;;;47.70;27.80;;;;;;;-4.04;68.73;100215.89;105105;1291;98299;-84
2022/11/20 04:38:22;;;;;;;47.90;26.80;;;;;;;-4.14;68.89;100218.35;104963;1299;139567;-85
2022/11/20 04:40:56;;;;;;;44.90;26.80;;;;;;;-4.18;69.28;100216.83;104925;1294;93269;-85
2022/11/20 04:43:27;;;;;;;44.70;26.00;;;;;;;-4.16;69.25;100212.06;105120;1299;93077;-85
2022/11/20 04:45:59;;;;;;;48.20;28.00;;;;;;;-4.16;69.16;100211.52;105003;1298;139761;-84
2022/11/20 04:48:31;;;;;;;45.90;27.80;;;;;;;-4.19;69.26;100205.38;105053;1284;98240;-84
2022/11/20 04:51:05;;;;;;;46.90;26.10;;;;;;;-4.24;69.22;100205.59;104973;1294;140390;-85
2022/11/20 04:53:36;;;;;;;44.10;26.10;;;;;;;-4.26;69.48;100208.81;105078;1299;94282;-85
2022/11/20 04:56:10;;;;;;;44.10;27.00;;;;;;;-4.18;69.60;100209.04;104948;1290;142562;-85
2022/11/20 04:58:41;;;;;;;46.40;28.20;;;;;;;-4.07;69.45;100211.46;105115;1292;108526;-85
2022/11/20 05:01:14;;;;;;;50.20;28.90;;;;;;;-3.98;69.14;100208.06;104945;1294;97959;-85
2022/11/20 05:03:46;;;;;;;48.20;28.50;;;;;;;-3.91;68.82;100211.23;104977;1288;139965;-85
2022/11/20 05:06:19;;;;;;;44.50;25.60;;;;;;;-3.86;68.51;100208.27;105086;1294;93282;-85
2022/11/20 05:08:50;;;;;;;46.70;27.60;;;;;;;-3.85;68.32;100203.08;104882;1299;141302;-85
2022/11/20 05:11:24;;;;;;;47.40;28.30;;;;;;;-3.84;68.35;100203.29;105101;1299;108240;-85
2022/11/20 05:13:54;;;;;;;45.00;28.10;;;;;;;-3.83;68.12;100203.98;104971;1295;139940;-85
2022/11/20 05:16:26;;;;;;;44.50;26.70;;;;;;;-3.89;68.05;100201.94;105061;1293;105768;-84
2022/11/20 05:18:59;;;;;;;40.90;23.10;;;;;;;-4.01;68.22;100197.76;105060;1298;92921;-85
2022/11/20 05:21:31;;;;;;;39.80;24.00;;;;;;;-4.12;68.41;100199.88;104953;1294;138916;-85
2022/11/20 05:24:01;;;;;;;43.70;26.50;;;;;;;-4.23;68.77;100195.72;105087;1299;107011;-86
2022/11/20 05:26:32;;;;;;;43.20;25.00;;;;;;;-4.31;69.01;100198.42;104987;1299;140306;-86
2022/11/20 05:29:03;;;;;;;43.60;25.90;;;;;;;-4.38;69.26;100195.45;105063;1287;107566;-85
2022/11/20 05:31:33;;;;;;;42.40;23.60;;;;;;;-4.42;69.40;100197.91;105038;1295;93476;-86
2022/11/20 05:34:04;;;;;;;39.60;23.60;;;;;;;-4.45;69.40;100195.05;105063;1291;93269;-86
2022/11/20 05:36:35;;;;;;;42.30;26.20;;;;;;;-4.45;69.43;100186.73;105114;1297;107531;-86
2022/11/20 05:39:11;;;;;;;46.30;26.80;;;;;;;-4.48;69.68;100183.70;104983;1295;138120;-86
2022/11/20 05:41:41;;;;;;;45.80;27.40;;;;;;;-4.48;69.53;100183.52;105074;1294;108668;-85
2022/11/20 05:44:14;;;;;;;42.60;25.00;;;;;;;-4.50;69.79;100181.05;104968;1297;140101;-86
2022/11/20 05:46:44;;;;;;;41.70;24.70;;;;;;;-4.52;69.79;100183.58;105063;1286;92891;-86
2022/11/20 05:49:15;;;;;;;43.60;25.50;;;;;;;-4.52;69.80;100181.85;105079;1290;108183;-86
2022/11/20 05:51:46;;;;;;;46.20;27.20;;;;;;;-4.54;69.65;100185.59;105014;1292;138324;-86
2022/11/20 05:54:17;;;;;;;44.70;26.80;;;;;;;-4.57;69.63;100186.70;105089;1299;106384;-85
2022/11/20 05:56:48;;;;;;;43.10;24.20;;;;;;;-4.63;69.64;100185.48;104950;1291;140058;-85
2022/11/20 05:59:18;;;;;;;42.50;24.60;;;;;;;-4.72;69.81;100184.70;105056;1298;93315;-85
2022/11/20 06:01:50;;;;;;;40.20;23.90;;;;;;;-4.76;70.16;100179.54;104956;1284;140423;-85
2022/11/20 06:04:25;;;;;;;43.20;24.90;;;;;;;-4.81;69.95;100177.81;105061;1292;98249;-85
2022/11/20 06:06:56;;;;;;;44.10;26.30;;;;;;;-4.88;70.26;100171.36;105067;1291;107303;-85
2022/11/20 06:09:28;;;;;;;39.40;23.80;;;;;;;-4.94;70.52;100170.48;104960;1294;141174;-86
2022/11/20 06:11:58;;;;;;;40.40;24.60;;;;;;;-5.01;70.68;100172.70;105089;1292;93405;-86
2022/11/20 06:14:29;;;;;;;41.20;23.60;;;;;;;-5.03;70.85;100171.56;104953;1294;140037;-86
2022/11/20 06:17:00;;;;;;;39.60;23.60;;;;;;;-4.98;70.86;100174.83;105169;1294;97850;-84
2022/11/20 06:19:30;;;;;;;40.20;23.70;;;;;;;-4.95;70.69;100178.21;105224;1284;106131;-84
2022/11/20 06:22:01;;;;;;;42.30;24.40;;;;;;;-4.97;70.68;100179.03;105173;1294;93046;-85
2022/11/20 06:24:32;;;;;;;38.60;22.10;;;;;;;-5.00;70.64;100173.55;105166;1291;93091;-85
2022/11/20 06:27:02;;;;;;;38.00;23.20;;;;;;;-4.99;70.58;100168.42;105140;1291;140264;-85
2022/11/20 06:29:33;;;;;;;41.60;24.30;;;;;;;-4.98;70.48;100163.43;105161;1294;97052;-85
2022/11/20 06:32:04;;;;;;;42.60;25.10;;;;;;;-4.95;70.72;100160.41;104883;1294;139117;-85
2022/11/20 06:34:35;;;;;;;44.00;25.40;;;;;;;-4.94;70.35;100160.60;105097;1294;93204;-85
2022/11/20 06:37:05;;;;;;;38.90;22.00;;;;;;;-5.00;70.47;100166.13;105074;1291;93495;-85
2022/11/20 06:39:36;;;;;;;39.50;23.20;;;;;;;-5.05;70.53;100168.73;104960;1293;141481;-85
2022/11/20 06:42:07;;;;;;;38.80;24.40;;;;;;;-5.05;70.74;100174.12;105083;1294;98946;-85
2022/11/20 06:44:37;;;;;;;43.10;25.40;;;;;;;-5.02;70.68;100169.84;104999;1294;138586;-85
2022/11/20 06:47:10;;;;;;;40.60;24.00;;;;;;;-5.00;70.65;100169.92;105080;1294;93179;-85
2022/11/20 06:49:41;;;;;;;40.50;24.30;;;;;;;-5.02;70.61;100172.11;104977;1294;140171;-85
2022/11/20 06:52:11;;;;;;;39.30;23.20;;;;;;;-5.00;70.70;100173.05;105084;1292;109472;-86
2022/11/20 06:54:44;;;;;;;37.60;23.50;;;;;;;-4.96;70.56;100173.35;105122;1286;98042;-85
2022/11/20 06:57:15;;;;;;;39.30;24.00;;;;;;;-4.96;70.45;100171.27;104950;1299;139746;-85
2022/11/20 06:59:46;;;;;;;42.50;25.50;;;;;;;-4.99;70.79;100159.59;105073;1294;93007;-85
2022/11/20 07:02:16;;;;;;;40.10;22.90;;;;;;;-5.01;70.81;100157.79;104991;1294;140918;-84
2022/11/20 07:04:47;;;;;;;40.30;22.80;;;;;;;-5.05;70.71;100160.59;105079;1293;109497;-84
2022/11/20 07:07:18;;;;;;;37.60;22.80;;;;;;;-5.05;71.01;100157.49;105000;1291;97344;-85
2022/11/20 07:09:48;;;;;;;42.20;25.80;;;;;;;-4.99;70.93;100150.59;105004;1299;137988;-85
2022/11/20 07:12:20;;;;;;;42.20;23.90;;;;;;;-4.96;70.61;100147.38;105092;1297;93788;-85
2022/11/20 07:14:52;;;;;;;40.40;23.90;;;;;;;-4.95;70.69;100146.39;104987;1285;140381;-85
2022/11/20 07:17:22;;;;;;;37.20;21.80;;;;;;;-4.90;70.76;100146.73;105063;1295;107414;-86
2022/11/20 07:19:53;;;;;;;42.40;25.70;;;;;;;-4.87;70.44;100143.85;104977;1299;141747;-84
2022/11/20 07:22:23;;;;;;;35.90;21.20;;;;;;;-4.88;70.61;100145.40;105109;1293;107533;-85
2022/11/20 07:24:54;;;;;;;42.60;26.00;;;;;;;-4.89;70.74;100150.73;105095;1294;93508;-86
2022/11/20 07:27:25;;;;;;;39.80;23.40;;;;;;;-4.80;70.90;100150.16;104985;1299;140707;-84
2022/11/20 07:29:56;;;;;;;37.30;22.50;;;;;;;-4.70;70.46;100148.20;105060;1294;109776;-84
2022/11/20 07:32:27;;;;;;;40.10;23.40;;;;;;;-4.63;70.34;100155.15;104976;1299;140221;-83
2022/11/20 07:35:01;;;;;;;45.10;26.60;;;;;;;-4.60;70.18;100155.27;105085;1291;107352;-84
2022/11/20 07:37:36;;;;;;;47.40;26.40;;;;;;;-4.54;70.30;100159.62;105101;1294;93307;-87
2022/11/20 07:40:08;;;;;;;42.30;24.70;;;;;;;-4.48;70.18;100155.63;105004;1285;93018;-85
2022/11/20 07:42:39;;;;;;;44.80;28.40;;;;;;;-4.44;69.73;100148.32;105050;1294;108512;-85
2022/11/20 07:45:12;;;;;;;49.90;28.60;;;;;;;-4.35;69.89;100145.62;104831;1294;139558;-86
2022/11/20 07:47:43;;;;;;;48.50;28.40;;;;;;;-4.23;69.68;100144.59;105076;1292;107480;-86
2022/11/20 07:50:14;;;;;;;48.70;29.40;;;;;;;-4.17;69.41;100147.53;104959;1294;139787;-86
2022/11/20 07:52:50;;;;;;;43.50;25.00;;;;;;;-4.12;69.45;100146.65;105063;1300;92902;-85
2022/11/20 07:55:21;;;;;;;44.60;25.00;;;;;;;-4.05;69.30;100145.96;105054;1285;108395;-85
2022/11/20 07:57:58;;;;;;;43.60;26.20;;;;;;;-3.97;69.24;100145.16;104983;1299;139422;-86
2022/11/20 08:00:30;;;;;;;43.20;24.60;;;;;;;-3.94;69.23;100143.86;105082;1294;107129;-86
2022/11/20 08:03:03;;;;;;;47.70;28.50;;;;;;;-3.90;69.15;100138.94;104953;1291;139375;-86
2022/11/20 08:05:34;;;;;;;43.30;26.20;;;;;;;-3.82;69.15;100137.44;105094;1291;93335;-85
2022/11/20 08:08:06;;;;;;;41.70;24.70;;;;;;;-3.70;68.90;100134.09;105106;1290;141203;-85
2022/11/20 08:10:37;;;;;;;42.40;25.80;;;;;;;-3.62;68.55;100133.10;105259;1292;97567;-85
2022/11/20 08:15:57;;;;;;;44.00;26.80;;;;;;;-3.48;67.96;100135.54;104956;1299;138984;-88
2022/11/20 08:18:28;;;;;;;40.30;24.00;;;;;;;-3.46;68.08;100132.30;105101;1297;94080;-87
2022/11/20 08:21:04;;;;;;;39.80;23.80;;;;;;;-3.44;67.98;100130.98;104951;1292;139127;-88
2022/11/20 08:23:36;;;;;;;42.60;25.80;;;;;;;-3.34;67.98;100126.02;105066;1299;98046;-89
2022/11/20 08:26:07;;;;;;;44.90;29.00;;;;;;;-3.21;67.78;100122.69;104938;1293;140406;-88
2022/11/20 08:28:38;;;;;;;43.40;26.30;;;;;;;-3.01;67.41;100123.02;104999;1292;93356;-88
2022/11/20 08:31:09;;;;;;;49.80;30.50;;;;;;;-2.77;66.74;100124.60;105062;1291;93365;-85
2022/11/20 08:33:40;;;;;;;47.90;27.60;;;;;;;-2.60;66.41;100124.84;104939;1278;140521;-85
2022/11/20 08:36:11;;;;;;;44.10;27.50;;;;;;;-2.37;66.11;100122.54;105066;1293;98210;-86
2022/11/20 08:38:42;;;;;;;42.90;26.70;;;;;;;-2.20;65.29;100124.27;104971;1286;139536;-84
2022/11/20 08:41:27;;;;;;;39.60;23.80;;;;;;;-2.14;64.54;100124.23;105050;1294;93264;-84
2022/11/20 08:44:00;;;;;;;48.80;29.00;;;;;;;-2.18;64.59;100125.38;104975;1295;138229;-85
2022/11/20 08:46:36;;;;;;;47.10;27.50;;;;;;;-2.14;65.00;100111.88;105074;1289;108342;-84
2022/11/20 08:49:08;;;;;;;42.20;26.30;;;;;;;-2.07;64.49;100109.08;105048;1278;97965;-87
2022/11/20 08:51:41;;;;;;;42.80;27.90;;;;;;;-1.87;64.90;100097.81;104979;1292;140992;-86
2022/11/20 08:54:12;;;;;;;46.90;29.00;;;;;;;-1.55;63.83;100092.30;105070;1290;93145;-86
2022/11/20 08:56:43;;;;;;;45.90;28.80;;;;;;;-1.27;63.27;100085.65;104981;1284;138667;-85
2022/11/20 08:59:15;;;;;;;47.60;29.30;;;;;;;-1.40;63.00;100082.66;104943;1294;108257;-86
2022/11/20 09:02:06;;;;;;;45.40;26.00;;;;;;;-1.46;63.34;100076.27;105000;1299;140027;-85
2022/11/20 09:04:37;;;;;;;44.30;27.70;;;;;;;-1.35;63.32;100079.95;105079;1294;107947;-83
2022/11/20 09:07:07;;;;;;;42.20;25.70;;;;;;;-0.58;61.84;100079.00;105088;1298;93028;-85
2022/11/20 09:09:38;;;;;;;37.30;22.50;;;;;;;1.57;57.42;100065.22;104988;1299;138433;-84
2022/11/20 09:12:09;;;;;;;43.80;28.30;;;;;;;3.58;52.93;100055.06;105114;1298;108940;-93
2022/11/20 09:14:40;;;;;;;44.90;28.40;;;;;;;5.37;48.53;100051.90;105052;1286;139504;-90
2022/11/20 09:17:13;;;;;;;43.10;29.60;;;;;;;6.93;46.20;100046.09;105038;1292;107977;-86
2022/11/20 09:19:43;;;;;;;42.50;29.30;;;;;;;8.39;43.74;100042.34;104800;1292;139705;-87
2022/11/20 09:22:15;;;;;;;36.90;25.20;;;;;;;9.17;41.45;100041.88;104991;1294;93967;-85
2022/11/20 09:24:46;;;;;;;42.90;29.70;;;;;;;7.69;40.52;100049.08;105032;1285;108411;-84
2022/11/20 09:27:38;;;;;;;40.30;27.90;;;;;;;5.88;43.40;100053.09;104870;1294;139996;-86
2022/11/20 09:30:23;;;;;;;41.00;27.00;;;;;;;4.46;45.99;100053.25;105050;1293;106776;-87
2022/11/20 09:35:39;;;;;;;47.40;32.00;;;;;;;2.60;50.15;100057.16;105087;1299;94152;-86
2022/11/20 09:38:11;;;;;;;50.20;32.50;;;;;;;2.06;51.90;100061.64;104956;1295;139511;-88
2022/11/20 09:40:48;;;;;;;49.40;31.00;;;;;;;1.72;53.03;100056.08;105070;1297;98122;-87
2022/11/20 09:43:25;;;;;;;51.30;31.60;;;;;;;1.31;54.28;100056.05;105070;1292;107535;-87
2022/11/20 09:46:07;;;;;;;47.30;29.40;;;;;;;0.94;55.16;100055.81;104886;1292;138015;-85
2022/11/20 09:49:03;;;;;;;47.00;29.50;;;;;;;0.60;56.04;100058.69;105032;1292;93036;-86
2022/11/20 09:51:47;;;;;;;46.60;29.00;;;;;;;0.28;57.05;100064.69;104955;1297;139361;-86
2022/11/20 09:54:21;;;;;;;47.40;29.10;;;;;;;0.03;58.21;100063.36;105093;1291;97983;-85
2022/11/20 09:56:57;;;;;;;49.10;30.50;;;;;;;-0.15;58.68;100057.95;104953;1300;139622;-86
2022/11/20 09:59:39;;;;;;;51.40;30.50;;;;;;;-0.25;59.40;100054.85;105145;1292;93533;-83
2022/11/20 10:02:20;;;;;;;42.50;26.40;;;;;;;-0.33;59.38;100053.02;104931;1292;140500;-83
2022/11/20 10:04:56;;;;;;;51.90;31.70;;;;;;;-0.46;60.19;100053.89;104903;1288;108358;-83
2022/11/20 10:07:38;;;;;;;53.90;34.40;;;;;;;-0.49;60.59;100055.42;105035;1294;97379;-83
2022/11/20 10:10:20;;;;;;;52.60;31.20;;;;;;;-0.38;60.82;100050.85;105004;1292;108632;-84
2022/11/20 10:13:05;;;;;;;44.20;26.00;;;;;;;-0.36;60.63;100052.45;104588;1293;94110;-83
2022/11/20 10:15:47;;;;;;;43.80;25.00;;;;;;;-0.49;61.01;100048.44;104929;1294;139146;-82
2022/11/20 10:18:30;;;;;;;47.10;27.50;;;;;;;-0.62;61.62;100046.20;104868;1291;108483;-83
2022/11/20 10:21:10;;;;;;;48.60;29.30;;;;;;;-0.64;61.87;100048.59;104885;1283;142044;-84
2022/11/20 10:24:01;;;;;;;51.00;30.70;;;;;;;-0.59;62.56;100044.83;105054;1297;107396;-83
2022/11/20 10:26:43;;;;;;;51.40;31.30;;;;;;;-0.37;61.95;100035.50;104819;1295;139306;-84
2022/11/20 10:29:16;;;;;;;49.50;30.20;;;;;;;0.20;60.96;100030.02;105100;1291;93362;-85
2022/11/20 10:31:52;;;;;;;52.50;31.60;;;;;;;0.18;60.65;100024.60;104963;1293;138239;-84
2022/11/20 10:34:27;;;;;;;49.00;31.40;;;;;;;0.13;61.10;100024.90;105100;1291;98727;-84
2022/11/20 10:37:03;;;;;;;45.70;28.70;;;;;;;0.04;61.16;100020.98;105048;1292;107535;-83
2022/11/20 10:39:42;;;;;;;48.20;28.60;;;;;;;-0.08;61.40;100024.33;104904;1284;139676;-85
2022/11/20 10:42:16;;;;;;;48.40;29.80;;;;;;;-0.12;61.57;100023.42;105075;1294;92834;-84
2022/11/20 10:45:02;;;;;;;49.00;31.60;;;;;;;-0.13;61.72;100022.01;104942;1283;140253;-80
2022/11/20 10:47:38;;;;;;;48.80;29.80;;;;;;;-0.12;62.27;100020.27;105053;1294;98025;-84
2022/11/20 10:50:24;;;;;;;46.10;28.40;;;;;;;-0.05;61.95;100018.61;104937;1297;139947;-88
2022/11/20 10:53:17;;;;;;;46.40;28.30;;;;;;;-0.01;62.07;100020.23;105030;1285;93011;-83
2022/11/20 10:55:51;;;;;;;47.80;30.50;;;;;;;0.01;62.31;100021.80;104979;1295;139704;-84
2022/11/20 10:58:34;;;;;;;42.00;25.80;;;;;;;0.07;61.87;100018.73;105055;1297;108670;-83
2022/11/20 11:01:14;;;;;;;36.10;22.40;;;;;;;0.09;61.74;100019.09;105093;1293;98519;-84
2022/11/20 11:03:45;;;;;;;41.60;25.00;;;;;;;0.07;61.71;100018.91;104983;1295;140094;-84
2022/11/20 11:06:23;;;;;;;42.90;27.00;;;;;;;0.09;61.93;100009.67;105079;1298;94207;-84
2022/11/20 11:08:57;;;;;;;42.40;25.10;;;;;;;0.13;61.73;100009.36;104982;1294;140931;-83
2022/11/20 11:11:32;;;;;;;43.60;26.50;;;;;;;0.10;61.86;100008.30;105087;1297;108492;-82
2022/11/20 11:14:09;;;;;;;48.30;30.90;;;;;;;0.09;62.04;100007.76;104966;1290;140746;-83
2022/11/20 11:16:52;;;;;;;41.50;23.00;;;;;;;0.14;61.66;100010.25;105047;1298;107995;-84
2022/11/20 11:19:27;;;;;;;41.30;25.40;;;;;;;0.13;61.68;100007.79;105033;1297;93664;-82
2022/11/20 11:21:58;;;;;;;43.30;27.50;;;;;;;0.21;61.96;100007.17;104920;1292;138842;-82
2022/11/20 11:24:31;;;;;;;44.50;26.70;;;;;;;0.29;61.75;100007.08;105062;1290;107403;-82
2022/11/20 11:27:17;;;;;;;42.80;25.40;;;;;;;0.34;61.35;100006.77;104925;1299;141370;-82
2022/11/20 11:29:49;;;;;;;40.40;24.00;;;;;;;0.39;61.13;100008.38;105060;1300;106702;-82
2022/11/20 11:32:22;;;;;;;43.00;27.10;;;;;;;0.38;61.02;100002.78;104978;1287;139295;-83
2022/11/20 11:35:04;;;;;;;42.00;25.80;;;;;;;0.40;61.21;100001.58;105076;1299;94150;-83
2022/11/20 11:37:38;;;;;;;43.00;26.70;;;;;;;0.45;61.12;99995.69;105084;1282;108924;-83
2022/11/20 11:40:12;;;;;;;38.10;23.30;;;;;;;0.55;61.41;99994.72;105093;1292;98661;-83
2022/11/20 11:42:58;;;;;;;38.00;23.70;;;;;;;0.64;61.00;99992.15;105075;1292;108132;-83
2022/11/20 11:45:29;;;;;;;41.90;24.70;;;;;;;0.68;60.70;99988.88;104955;1290;140393;-83
2022/11/20 11:48:04;;;;;;;38.70;24.00;;;;;;;0.69;60.75;99987.30;105096;1291;93239;-84